createdAt,value
2022-10-24T00:00:31.623Z,6.17
2022-10-24T00:02:59.638Z,6.23
2022-10-24T00:05:27.346Z,6.93
2022-10-24T00:07:54.500Z,6.20
2022-10-24T00:10:21.664Z,6.23
2022-10-24T00:12:48.765Z,6.13
2022-10-24T00:15:16.172Z,5.97
2022-10-24T00:17:43.318Z,5.80
2022-10-24T00:20:10.756Z,5.70
2022-10-24T00:22:37.850Z,5.60
2022-10-24T00:25:05.359Z,5.60
2022-10-24T00:27:32.458Z,6.07
2022-10-24T00:29:59.554Z,5.80
2022-10-24T00:32:26.631Z,6.00
2022-10-24T00:34:53.748Z,5.90
2022-10-24T00:39:52.873Z,5.80
2022-10-24T00:42:19.985Z,5.47
2022-10-24T00:44:47.353Z,5.60
2022-10-24T00:47:16.415Z,6.00
2022-10-24T00:49:51.808Z,4.90
2022-10-24T00:52:20.667Z,5.43
2022-10-24T00:54:47.908Z,5.23
2022-10-24T00:57:30.359Z,5.77
2022-10-24T00:59:58.988Z,5.20
2022-10-24T01:02:26.156Z,5.10
2022-10-24T01:04:55.044Z,4.97
2022-10-24T01:07:22.130Z,5.20
2022-10-24T01:10:12.034Z,5.57
2022-10-24T01:12:42.502Z,5.27
2022-10-24T01:15:17.113Z,5.73
2022-10-24T01:18:07.614Z,5.40
2022-10-24T01:20:37.717Z,5.30
2022-10-24T01:23:13.706Z,5.03
2022-10-24T01:25:43.652Z,5.10
2022-10-24T01:28:22.875Z,5.10
2022-10-24T01:30:53.413Z,5.40
2022-10-24T01:33:27.361Z,5.07
2022-10-24T01:35:57.191Z,5.20
2022-10-24T01:38:35.363Z,5.10
2022-10-24T01:41:02.492Z,5.33
2022-10-24T01:43:35.193Z,5.03
2022-10-24T01:46:04.013Z,5.20
2022-10-24T01:48:33.621Z,5.00
2022-10-24T01:51:02.084Z,4.70
2022-10-24T01:53:30.065Z,5.10
2022-10-24T01:55:57.680Z,4.87
2022-10-24T01:58:25.050Z,4.90
2022-10-24T02:00:53.312Z,5.37
2022-10-24T02:03:32.491Z,5.43
2022-10-24T02:06:03.199Z,4.70
2022-10-24T02:08:34.014Z,5.13
2022-10-24T02:11:02.225Z,4.90
2022-10-24T02:13:42.321Z,4.80
2022-10-24T02:16:10.095Z,4.90
2022-10-24T02:18:37.831Z,4.70
2022-10-24T02:21:20.074Z,5.10
2022-10-24T02:23:55.611Z,5.10
2022-10-24T02:26:27.371Z,5.10
2022-10-24T02:28:55.351Z,5.07
2022-10-24T02:31:23.887Z,4.83
2022-10-24T02:33:52.223Z,4.83
2022-10-24T02:36:20.649Z,4.77
2022-10-24T02:38:49.343Z,5.00
2022-10-24T02:41:19.281Z,4.80
2022-10-24T02:43:47.253Z,5.57
2022-10-24T02:46:15.571Z,5.07
2022-10-24T02:48:44.816Z,5.23
2022-10-24T02:51:13.432Z,5.10
2022-10-24T02:53:40.531Z,4.97
2022-10-24T02:56:07.864Z,4.77
2022-10-24T02:58:34.980Z,5.03
2022-10-24T03:01:02.147Z,5.60
2022-10-24T03:03:29.332Z,4.90
2022-10-24T03:05:56.455Z,5.20
2022-10-24T03:08:23.560Z,5.03
2022-10-24T03:10:50.657Z,5.07
2022-10-24T03:13:17.807Z,4.80
2022-10-24T03:15:45.010Z,4.63
2022-10-24T03:18:12.211Z,4.63
2022-10-24T03:20:39.331Z,4.53
2022-10-24T03:23:06.672Z,4.50
2022-10-24T03:25:33.919Z,5.03
2022-10-24T03:28:01.160Z,5.03
2022-10-24T03:30:28.300Z,4.50
2022-10-24T03:32:55.415Z,4.67
2022-10-24T03:35:22.613Z,4.50
2022-10-24T03:37:49.728Z,4.90
2022-10-24T03:40:16.967Z,4.70
2022-10-24T03:42:44.244Z,4.80
2022-10-24T03:45:11.639Z,4.53
2022-10-24T03:47:38.996Z,4.67
2022-10-24T03:50:06.790Z,4.47
2022-10-24T03:52:34.099Z,4.47
2022-10-24T03:55:01.271Z,4.60
2022-10-24T03:57:28.411Z,4.53
2022-10-24T03:59:55.541Z,3.47
2022-10-24T04:02:22.662Z,4.23
2022-10-24T04:04:49.813Z,4.27
2022-10-24T04:07:16.943Z,4.30
2022-10-24T04:09:44.093Z,3.83
2022-10-24T04:12:11.289Z,3.93
2022-10-24T04:14:38.492Z,3.90
2022-10-24T04:17:05.674Z,4.00
2022-10-24T04:19:32.792Z,3.80
2022-10-24T04:22:00.198Z,3.40
2022-10-24T04:24:27.468Z,3.50
2022-10-24T04:26:54.568Z,3.80
2022-10-24T04:29:21.670Z,3.80
2022-10-24T04:31:48.828Z,3.80
2022-10-24T04:34:16.095Z,3.80
2022-10-24T04:36:43.222Z,3.40
2022-10-24T04:39:10.446Z,3.77
2022-10-24T04:41:37.547Z,3.60
2022-10-24T04:44:04.662Z,3.50
2022-10-24T04:46:31.747Z,3.40
2022-10-24T04:48:58.943Z,3.43
2022-10-24T04:51:26.050Z,3.30
2022-10-24T04:53:53.183Z,3.50
2022-10-24T04:56:20.314Z,3.40
2022-10-24T04:58:47.418Z,3.77
2022-10-24T05:01:14.627Z,3.33
2022-10-24T05:03:41.810Z,3.40
2022-10-24T05:06:08.935Z,3.33
2022-10-24T05:08:36.330Z,3.77
2022-10-24T05:11:03.799Z,3.53
2022-10-24T05:13:34.352Z,3.40
2022-10-24T05:16:03.780Z,3.40
2022-10-24T05:18:30.988Z,3.47
2022-10-24T05:20:58.739Z,3.40
2022-10-24T05:23:26.429Z,3.33
2022-10-24T05:25:53.867Z,3.97
2022-10-24T05:28:20.975Z,3.27
2022-10-24T05:30:48.189Z,3.33
2022-10-24T05:33:15.344Z,3.33
2022-10-24T05:35:42.566Z,3.70
2022-10-24T05:38:09.971Z,3.47
2022-10-24T05:40:37.073Z,3.43
2022-10-24T05:43:04.215Z,3.33
2022-10-24T05:45:31.352Z,3.83
2022-10-24T05:47:58.524Z,3.60
2022-10-24T05:50:27.005Z,3.10
2022-10-24T05:52:54.310Z,3.40
2022-10-24T05:55:21.553Z,3.63
2022-10-24T05:57:48.882Z,3.33
2022-10-24T06:00:16.938Z,3.50
2022-10-24T06:02:44.388Z,3.37
2022-10-24T06:05:12.240Z,3.50
2022-10-24T06:07:41.992Z,3.27
2022-10-24T06:10:09.979Z,3.67
2022-10-24T06:12:37.308Z,3.30
2022-10-24T06:15:05.944Z,3.40
2022-10-24T06:17:33.260Z,3.37
2022-10-24T06:20:00.372Z,3.00
2022-10-24T06:22:29.697Z,3.47
2022-10-24T06:24:57.236Z,3.40
2022-10-24T06:27:24.417Z,3.30
2022-10-24T06:29:51.545Z,2.93
2022-10-24T06:32:18.848Z,3.47
2022-10-24T06:34:45.984Z,3.27
2022-10-24T06:37:13.130Z,3.50
2022-10-24T06:39:40.236Z,3.20
2022-10-24T06:42:07.351Z,3.30
2022-10-24T06:44:34.532Z,3.40
2022-10-24T06:47:01.684Z,3.40
2022-10-24T06:49:28.878Z,3.30
2022-10-24T06:51:55.980Z,3.70
2022-10-24T06:54:25.237Z,3.70
2022-10-24T06:56:54.889Z,3.00
2022-10-24T06:59:22.001Z,3.30
2022-10-24T07:01:49.254Z,3.43
2022-10-24T07:04:16.417Z,4.10
2022-10-24T07:06:43.534Z,3.23
2022-10-24T07:09:14.389Z,3.23
2022-10-24T07:11:42.730Z,3.60
2022-10-24T07:14:09.917Z,3.07
2022-10-24T07:16:37.151Z,3.23
2022-10-24T07:19:04.735Z,3.50
2022-10-24T07:21:32.457Z,3.57
2022-10-24T07:23:59.845Z,3.13
2022-10-24T07:26:28.469Z,3.53
2022-10-24T07:28:56.593Z,3.70
2022-10-24T07:31:25.383Z,3.93
2022-10-24T07:33:53.160Z,3.70
2022-10-24T07:36:21.619Z,3.60
2022-10-24T07:38:49.131Z,3.40
2022-10-24T07:41:16.606Z,3.33
2022-10-24T07:43:43.988Z,3.27
2022-10-24T07:46:11.893Z,3.10
2022-10-24T07:48:39.884Z,3.07
2022-10-24T07:51:07.820Z,3.40
2022-10-24T07:53:35.117Z,3.83
2022-10-24T07:56:02.473Z,3.50
2022-10-24T07:58:29.806Z,3.47
2022-10-24T08:01:02.925Z,3.33
2022-10-24T08:03:30.103Z,3.50
2022-10-24T08:05:57.272Z,3.73
2022-10-24T08:08:35.791Z,3.40
2022-10-24T08:11:08.289Z,3.67
2022-10-24T08:13:35.715Z,3.80
2022-10-24T08:16:02.949Z,3.27
2022-10-24T08:18:30.443Z,3.70
2022-10-24T08:21:02.423Z,3.80
2022-10-24T08:23:29.772Z,3.90
2022-10-24T08:25:56.869Z,3.40
2022-10-24T08:28:24.308Z,3.40
2022-10-24T08:31:01.669Z,3.50
2022-10-24T08:33:29.156Z,3.37
2022-10-24T08:36:01.550Z,3.93
2022-10-24T08:38:28.964Z,3.37
2022-10-24T08:40:56.744Z,3.40
2022-10-24T08:43:24.215Z,3.30
2022-10-24T08:46:10.058Z,3.50
2022-10-24T08:48:46.224Z,3.17
2022-10-24T08:51:25.513Z,3.27
2022-10-24T08:53:56.168Z,3.53
2022-10-24T08:56:24.974Z,3.67
2022-10-24T08:58:52.323Z,3.90
2022-10-24T09:01:28.357Z,3.37
2022-10-24T09:03:57.261Z,3.70
2022-10-24T09:06:29.418Z,3.60
2022-10-24T09:08:58.699Z,3.40
2022-10-24T09:11:31.185Z,3.77
2022-10-24T09:13:58.643Z,3.50
2022-10-24T09:16:27.601Z,3.40
2022-10-24T09:18:56.146Z,3.77
2022-10-24T09:21:23.812Z,3.90
2022-10-24T09:23:51.833Z,3.77
2022-10-24T09:26:30.825Z,3.50
2022-10-24T09:28:58.406Z,3.70
2022-10-24T09:31:26.861Z,3.70
2022-10-24T09:33:54.256Z,3.50
2022-10-24T09:36:24.864Z,3.37
2022-10-24T09:38:52.070Z,3.50
2022-10-24T09:41:33.318Z,3.80
2022-10-24T09:44:01.325Z,3.33
2022-10-24T09:46:28.447Z,3.70
2022-10-24T09:48:57.680Z,3.60
2022-10-24T09:51:35.485Z,4.00
2022-10-24T09:54:07.761Z,3.60
2022-10-24T09:56:36.720Z,3.47
2022-10-24T09:59:30.228Z,3.77
2022-10-24T10:02:19.623Z,3.40
2022-10-24T10:04:54.156Z,3.80
2022-10-24T10:07:26.735Z,3.70
2022-10-24T10:09:56.723Z,3.70
2022-10-24T10:12:34.577Z,3.80
2022-10-24T10:15:02.449Z,3.97
2022-10-24T10:17:33.077Z,3.77
2022-10-24T10:20:00.409Z,3.80
2022-10-24T10:22:28.723Z,4.30
2022-10-24T10:24:56.547Z,4.17
2022-10-24T10:27:32.581Z,4.20
2022-10-24T10:30:17.512Z,4.27
2022-10-24T10:32:54.255Z,4.40
2022-10-24T10:35:33.748Z,4.70
2022-10-24T10:38:18.756Z,4.53
2022-10-24T10:40:46.790Z,5.10
2022-10-24T10:43:13.917Z,4.87
2022-10-24T10:45:59.768Z,5.27
2022-10-24T10:48:33.876Z,5.17
2022-10-24T10:51:08.109Z,5.17
2022-10-24T10:53:35.656Z,5.47
2022-10-24T10:56:11.394Z,6.10
2022-10-24T10:58:54.414Z,5.67
2022-10-24T11:01:21.560Z,5.53
2022-10-24T11:03:56.360Z,5.20
2022-10-24T11:06:44.852Z,5.40
2022-10-24T11:09:25.969Z,5.30
2022-10-24T11:11:58.567Z,5.73
2022-10-24T11:14:40.653Z,5.93
2022-10-24T11:17:12.248Z,6.10
2022-10-24T11:19:42.172Z,6.10
2022-10-24T11:22:11.647Z,6.20
2022-10-24T11:24:44.012Z,6.20
2022-10-24T11:27:14.391Z,6.13
2022-10-24T11:29:51.732Z,5.83
2022-10-24T11:32:21.539Z,6.60
2022-10-24T11:34:58.190Z,5.87
2022-10-24T11:37:28.203Z,5.93
2022-10-24T11:40:00.332Z,6.70
2022-10-24T11:42:42.867Z,6.90
2022-10-24T11:45:15.571Z,7.03
2022-10-24T11:47:47.191Z,7.33
2022-10-24T11:50:21.903Z,6.67
2022-10-24T11:53:00.685Z,7.20
2022-10-24T11:55:31.610Z,6.63
2022-10-24T11:58:00.201Z,7.10
2022-10-24T12:00:32.714Z,6.93
2022-10-24T12:03:02.863Z,6.87
2022-10-24T12:05:59.472Z,7.27
2022-10-24T12:08:32.342Z,7.40
2022-10-24T12:10:59.443Z,7.80
2022-10-24T12:13:29.524Z,7.70
2022-10-24T12:16:03.666Z,7.33
2022-10-24T12:18:39.716Z,7.30
2022-10-24T12:21:09.111Z,7.57
2022-10-24T12:23:36.573Z,7.00
2022-10-24T12:26:03.671Z,7.13
2022-10-24T12:28:30.856Z,7.60
2022-10-24T12:31:20.850Z,7.17
2022-10-24T12:34:11.032Z,7.27
2022-10-24T12:36:56.940Z,7.20
2022-10-24T12:39:31.592Z,8.23
2022-10-24T12:41:59.512Z,7.93
2022-10-24T12:44:27.478Z,8.37
2022-10-24T12:46:55.146Z,8.90
2022-10-24T12:49:29.612Z,9.13
2022-10-24T12:51:57.323Z,9.03
2022-10-24T12:54:41.871Z,9.30
2022-10-24T12:57:09.365Z,9.20
2022-10-24T12:59:46.290Z,8.80
2022-10-24T13:02:16.616Z,9.43
2022-10-24T13:05:10.285Z,10.10
2022-10-24T13:07:48.646Z,11.10
2022-10-24T13:10:17.922Z,10.90
2022-10-24T13:12:47.781Z,10.90
2022-10-24T13:15:33.525Z,11.33
2022-10-24T13:18:23.885Z,11.90
2022-10-24T13:21:06.551Z,12.07
2022-10-24T13:23:34.469Z,12.73
2022-10-24T13:26:02.734Z,12.40
2022-10-24T13:28:33.326Z,12.17
2022-10-24T13:31:00.477Z,12.53
2022-10-24T13:33:35.135Z,12.43
2022-10-24T13:36:16.338Z,12.73
2022-10-24T13:39:00.407Z,12.17
2022-10-24T13:41:38.049Z,12.03
2022-10-24T13:44:23.669Z,12.37
2022-10-24T13:46:54.694Z,11.57
2022-10-24T13:49:37.117Z,12.00
2022-10-24T13:52:08.872Z,12.40
2022-10-24T13:54:38.286Z,12.30
2022-10-24T13:57:22.160Z,13.07
2022-10-24T13:59:55.069Z,12.97
2022-10-24T14:02:26.111Z,13.23
2022-10-24T14:04:57.553Z,13.33
2022-10-24T14:07:33.747Z,13.53
2022-10-24T14:10:03.369Z,13.33
2022-10-24T14:12:32.380Z,13.43
2022-10-24T14:15:02.594Z,12.20
2022-10-24T14:17:31.388Z,12.50
2022-10-24T14:20:03.375Z,12.63
2022-10-24T14:22:36.692Z,12.50
2022-10-24T14:25:03.941Z,11.93
2022-10-24T14:27:31.061Z,12.93
2022-10-24T14:30:02.428Z,12.57
2022-10-24T14:32:30.267Z,13.57
2022-10-24T14:34:58.598Z,12.47
2022-10-24T14:37:31.313Z,12.80
2022-10-24T14:39:59.242Z,13.63
2022-10-24T14:42:26.909Z,13.63
2022-10-24T14:44:58.282Z,13.67
2022-10-24T14:47:28.208Z,14.83
2022-10-24T14:49:55.538Z,14.53
2022-10-24T14:52:28.893Z,13.43
2022-10-24T14:55:20.743Z,12.93
2022-10-24T14:57:49.619Z,12.57
2022-10-24T15:00:20.655Z,12.10
2022-10-24T15:02:48.564Z,11.70
2022-10-24T15:05:22.867Z,11.60
2022-10-24T15:08:16.597Z,12.67
2022-10-24T15:10:42.222Z,13.07
2022-10-24T15:13:12.432Z,13.50
2022-10-24T15:15:45.339Z,14.03
2022-10-24T15:18:26.410Z,13.57
2022-10-24T15:20:56.019Z,14.43
2022-10-24T15:23:26.927Z,14.80
2022-10-24T15:26:02.174Z,15.47
2022-10-24T15:28:49.213Z,15.93
2022-10-24T15:31:20.108Z,15.60
2022-10-24T15:33:47.536Z,14.70
2022-10-24T15:36:22.909Z,14.93
2022-10-24T15:38:54.571Z,14.33
2022-10-24T15:41:21.897Z,14.80
2022-10-24T15:43:49.202Z,13.73
2022-10-24T15:46:16.360Z,13.93
2022-10-24T15:48:43.889Z,12.90
2022-10-24T15:51:14.560Z,12.87
2022-10-24T15:53:42.008Z,13.27
2022-10-24T15:56:11.197Z,12.90
2022-10-24T15:58:38.917Z,12.20
2022-10-24T16:01:06.486Z,11.93
2022-10-24T16:03:35.473Z,12.30
2022-10-24T16:06:04.415Z,11.20
2022-10-24T16:08:31.767Z,11.33
2022-10-24T16:10:58.891Z,11.07
2022-10-24T16:13:26.039Z,10.60
2022-10-24T16:15:53.354Z,10.40
2022-10-24T16:18:20.464Z,9.73
2022-10-24T16:20:47.672Z,10.30
2022-10-24T16:23:15.860Z,9.33
2022-10-24T16:25:43.038Z,9.90
2022-10-24T16:28:10.213Z,9.77
2022-10-24T16:30:38.905Z,9.17
2022-10-24T16:33:06.275Z,8.90
2022-10-24T16:35:35.843Z,8.47
2022-10-24T16:38:03.244Z,8.80
2022-10-24T16:40:30.532Z,7.87
2022-10-24T16:42:58.730Z,8.43
2022-10-24T16:45:26.547Z,7.93
2022-10-24T16:47:53.711Z,7.93
2022-10-24T16:50:24.124Z,7.90
2022-10-24T16:52:52.297Z,7.40
2022-10-24T16:55:19.512Z,7.60
2022-10-24T16:57:46.779Z,6.73
2022-10-24T17:00:16.755Z,7.27
2022-10-24T17:02:48.529Z,6.90
2022-10-24T17:05:16.175Z,7.17
2022-10-24T17:07:43.966Z,7.40
2022-10-24T17:10:11.808Z,6.90
2022-10-24T17:12:39.727Z,6.83
2022-10-24T17:15:07.483Z,6.10
2022-10-24T17:17:34.768Z,5.93
2022-10-24T17:20:02.424Z,6.17
2022-10-24T17:22:29.874Z,4.53
2022-10-24T17:24:57.234Z,4.97
2022-10-24T17:27:24.358Z,4.90
2022-10-24T17:29:51.583Z,4.37
2022-10-24T17:32:18.915Z,4.57
2022-10-24T17:34:50.017Z,4.50
2022-10-24T17:37:22.713Z,4.57
2022-10-24T17:39:57.029Z,4.33
2022-10-24T17:42:24.385Z,4.10
2022-10-24T17:44:51.611Z,3.83
2022-10-24T17:47:18.827Z,4.33
2022-10-24T17:49:46.244Z,4.03
2022-10-24T17:52:18.398Z,4.50
2022-10-24T17:54:45.963Z,4.50
2022-10-24T17:57:13.172Z,4.00
2022-10-24T17:59:40.276Z,3.67
2022-10-24T18:02:07.748Z,3.50
2022-10-24T18:04:34.943Z,3.47
2022-10-24T18:07:02.036Z,4.23
2022-10-24T18:09:29.769Z,3.73
2022-10-24T18:11:57.662Z,3.73
2022-10-24T18:14:24.838Z,4.67
2022-10-24T18:16:51.986Z,4.50
2022-10-24T18:19:19.101Z,5.00
2022-10-24T18:21:46.538Z,5.10
2022-10-24T18:24:13.701Z,5.33
2022-10-24T18:26:40.829Z,5.57
2022-10-24T18:29:07.932Z,6.03
2022-10-24T18:31:35.366Z,5.90
2022-10-24T18:34:07.503Z,6.20
2022-10-24T18:36:36.409Z,5.53
2022-10-24T18:39:03.572Z,6.00
2022-10-24T18:41:36.743Z,6.10
2022-10-24T18:44:11.332Z,5.30
2022-10-24T18:46:38.796Z,5.47
2022-10-24T18:49:05.991Z,5.30
2022-10-24T18:51:42.237Z,5.20
2022-10-24T18:54:14.782Z,5.07
2022-10-24T18:56:42.738Z,5.10
2022-10-24T18:59:13.603Z,5.40
2022-10-24T19:01:45.258Z,4.40
2022-10-24T19:04:30.470Z,5.20
2022-10-24T19:07:00.173Z,5.13
2022-10-24T19:09:27.410Z,4.70
2022-10-24T19:11:54.606Z,4.63
2022-10-24T19:14:22.117Z,4.10
2022-10-24T19:16:50.851Z,4.00
2022-10-24T19:19:23.448Z,3.93
2022-10-24T19:21:50.637Z,4.20
2022-10-24T19:24:17.831Z,3.47
2022-10-24T19:26:44.931Z,3.30
2022-10-24T19:29:12.075Z,3.50
2022-10-24T19:31:39.290Z,3.20
2022-10-24T19:34:06.425Z,3.17
2022-10-24T19:36:34.216Z,2.90
2022-10-24T19:39:01.617Z,3.03
2022-10-24T19:41:28.810Z,2.77
2022-10-24T19:43:56.049Z,3.03
2022-10-24T19:46:23.317Z,3.03
2022-10-24T19:48:51.170Z,3.27
2022-10-24T19:51:19.246Z,2.97
2022-10-24T19:53:46.903Z,2.80
2022-10-24T19:56:20.167Z,2.90
2022-10-24T19:58:50.007Z,2.67
2022-10-24T20:01:19.832Z,2.87
2022-10-24T20:03:48.170Z,2.87
2022-10-24T20:06:15.782Z,3.03
2022-10-24T20:08:43.180Z,3.00
2022-10-24T20:11:10.361Z,2.90
2022-10-24T20:13:37.671Z,2.70
2022-10-24T20:16:06.414Z,2.77
2022-10-24T20:18:34.725Z,3.20
2022-10-24T20:21:06.508Z,2.97
2022-10-24T20:23:34.171Z,3.27
2022-10-24T20:26:02.575Z,3.20
2022-10-24T20:28:29.733Z,2.83
2022-10-24T20:30:56.893Z,2.93
2022-10-24T20:33:24.057Z,3.03
2022-10-24T20:35:51.278Z,3.13
2022-10-24T20:38:18.878Z,3.30
2022-10-24T20:40:45.987Z,3.07
2022-10-24T20:43:13.089Z,3.27
2022-10-24T20:45:41.025Z,2.97
2022-10-24T20:48:08.152Z,3.27
2022-10-24T20:50:35.580Z,2.93
2022-10-24T20:53:03.237Z,3.20
2022-10-24T20:55:43.775Z,3.20
2022-10-24T20:58:13.342Z,3.33
2022-10-24T21:03:12.214Z,3.33
2022-10-24T21:05:39.654Z,3.80
2022-10-24T21:08:06.931Z,3.27
2022-10-24T21:10:34.059Z,3.47
2022-10-24T21:13:01.417Z,3.20
2022-10-24T21:15:28.580Z,2.97
2022-10-24T21:17:55.731Z,3.67
2022-10-24T21:20:22.993Z,3.67
2022-10-24T21:22:50.073Z,3.50
2022-10-24T21:25:17.391Z,3.10
2022-10-24T21:27:44.708Z,3.10
2022-10-24T21:30:14.641Z,2.70
2022-10-24T21:32:41.990Z,3.00
2022-10-24T21:35:09.190Z,3.40
2022-10-24T21:37:36.451Z,3.20
2022-10-24T21:40:04.000Z,3.47
2022-10-24T21:42:31.570Z,3.50
2022-10-24T21:44:58.679Z,3.60
2022-10-24T21:47:25.820Z,3.83
2022-10-24T21:49:52.943Z,3.73
2022-10-24T21:52:20.040Z,3.50
2022-10-24T21:54:47.280Z,3.60
2022-10-24T21:57:14.385Z,3.80
2022-10-24T21:59:41.471Z,3.70
2022-10-24T22:02:09.163Z,3.80
2022-10-24T22:04:36.319Z,3.40
2022-10-24T22:07:05.876Z,3.50
2022-10-24T22:09:33.033Z,3.07
2022-10-24T22:12:00.507Z,3.17
2022-10-24T22:14:27.726Z,3.10
2022-10-24T22:16:54.819Z,3.00
2022-10-24T22:19:22.076Z,3.13
2022-10-24T22:21:50.693Z,3.50
2022-10-24T22:24:20.228Z,3.43
2022-10-24T22:26:47.366Z,3.60
2022-10-24T22:29:15.596Z,3.47
2022-10-24T22:31:43.224Z,3.83
2022-10-24T22:34:13.766Z,3.17
2022-10-24T22:36:45.013Z,3.23
2022-10-24T22:39:14.753Z,4.13
2022-10-24T22:41:42.170Z,3.80
2022-10-24T22:44:11.413Z,3.07
2022-10-24T22:46:38.491Z,4.30
2022-10-24T22:51:42.236Z,4.33
2022-10-24T22:54:14.692Z,4.23
2022-10-24T22:56:42.088Z,4.67
2022-10-24T22:59:09.258Z,4.37
2022-10-24T23:01:36.810Z,4.77
2022-10-24T23:04:22.716Z,4.17
2022-10-24T23:06:56.131Z,3.67
2022-10-24T23:09:23.288Z,4.13
2022-10-24T23:11:50.606Z,4.37
2022-10-24T23:14:18.162Z,4.73
2022-10-24T23:16:54.611Z,4.67
2022-10-24T23:19:23.555Z,4.40
2022-10-24T23:22:02.240Z,4.13
2022-10-24T23:24:29.586Z,4.13
2022-10-24T23:27:07.352Z,4.70
2022-10-24T23:29:35.783Z,4.53
2022-10-24T23:32:03.352Z,4.67
2022-10-24T23:34:30.804Z,4.47
2022-10-24T23:37:02.430Z,4.80
2022-10-24T23:39:32.465Z,4.97
2022-10-24T23:42:00.058Z,4.50
2022-10-24T23:44:27.379Z,4.67
2022-10-24T23:47:01.521Z,4.70
2022-10-24T23:49:42.627Z,5.13
2022-10-24T23:52:18.920Z,4.97
2022-10-24T23:54:46.168Z,4.17
2022-10-24T23:57:18.090Z,4.50
2022-10-24T23:59:45.345Z,4.70
